createdAt,value
2019-02-21T00:02:15.435Z,17.60
2019-02-21T00:04:46.491Z,16.65
2019-02-21T00:07:17.721Z,17.45
2019-02-21T00:09:48.999Z,16.57
2019-02-21T00:12:20.099Z,16.75
2019-02-21T00:14:51.036Z,16.55
2019-02-21T00:17:22.859Z,16.57
2019-02-21T00:19:54.759Z,16.97
2019-02-21T00:22:26.296Z,16.73
2019-02-21T00:24:57.578Z,17.23
2019-02-21T00:27:28.572Z,16.40
2019-02-21T00:29:59.939Z,17.55
2019-02-21T00:32:31.691Z,17.92
2019-02-21T00:35:03.264Z,17.77
2019-02-21T00:37:35.114Z,18.12
2019-02-21T00:40:07.252Z,18.37
2019-02-21T00:42:37.615Z,19.62
2019-02-21T00:45:08.919Z,17.85
2019-02-21T00:47:40.442Z,19.55
2019-02-21T00:50:11.427Z,18.23
2019-02-21T00:52:43.247Z,18.10
2019-02-21T00:55:14.506Z,19.42
2019-02-21T00:57:46.122Z,17.80
2019-02-21T01:00:18.025Z,19.70
2019-02-21T01:02:49.241Z,18.10
2019-02-21T01:05:21.085Z,16.95
2019-02-21T01:07:52.389Z,17.40
2019-02-21T01:10:24.054Z,17.20
2019-02-21T01:12:54.960Z,17.45
2019-02-21T01:15:26.630Z,16.82
2019-02-21T01:17:58.175Z,16.42
2019-02-21T01:20:29.736Z,17.17
2019-02-21T01:23:01.127Z,15.80
2019-02-21T01:25:32.701Z,17.20
2019-02-21T01:28:04.554Z,17.57
2019-02-21T01:30:36.195Z,17.20
2019-02-21T01:33:07.779Z,16.95
2019-02-21T01:35:38.785Z,16.90
2019-02-21T01:38:10.605Z,18.10
2019-02-21T01:40:41.671Z,17.45
2019-02-21T01:43:13.224Z,16.45
2019-02-21T01:45:44.518Z,16.17
2019-02-21T01:48:16.099Z,17.62
2019-02-21T01:50:47.932Z,17.77
2019-02-21T01:53:19.227Z,16.48
2019-02-21T01:55:50.504Z,17.82
2019-02-21T01:58:22.118Z,17.70
2019-02-21T02:00:53.368Z,18.37
2019-02-21T02:03:24.677Z,18.02
2019-02-21T02:05:55.694Z,20.25
2019-02-21T02:08:27.547Z,18.23
2019-02-21T02:10:59.074Z,17.85
2019-02-21T02:13:31.020Z,17.95
2019-02-21T02:16:02.810Z,19.02
2019-02-21T02:18:34.643Z,17.67
2019-02-21T02:21:07.155Z,18.05
2019-02-21T02:23:38.401Z,18.00
2019-02-21T02:26:09.942Z,18.70
2019-02-21T02:28:41.766Z,18.77
2019-02-21T02:31:22.631Z,17.87
2019-02-21T02:33:46.419Z,19.37
2019-02-21T02:36:17.713Z,20.08
2019-02-21T02:38:49.234Z,18.15
2019-02-21T02:41:20.781Z,19.05
2019-02-21T02:43:52.342Z,19.42
2019-02-21T02:46:22.943Z,18.05
2019-02-21T02:48:54.482Z,19.75
2019-02-21T02:51:25.863Z,19.60
2019-02-21T02:53:57.087Z,19.55
2019-02-21T02:56:28.900Z,19.48
2019-02-21T02:59:00.446Z,19.48
2019-02-21T03:01:34.816Z,19.00
2019-02-21T03:04:05.015Z,19.55
2019-02-21T03:06:36.545Z,18.37
2019-02-21T03:09:11.839Z,19.32
2019-02-21T03:11:43.276Z,18.10
2019-02-21T03:14:14.850Z,18.85
2019-02-21T03:16:46.076Z,18.20
2019-02-21T03:19:17.935Z,18.30
2019-02-21T03:21:49.881Z,19.10
2019-02-21T03:24:21.688Z,19.15
2019-02-21T03:26:52.707Z,19.82
2019-02-21T03:29:23.980Z,19.57
2019-02-21T03:31:56.265Z,19.95
2019-02-21T03:34:28.422Z,20.17
2019-02-21T03:36:59.670Z,18.75
2019-02-21T03:39:30.958Z,20.57
2019-02-21T03:42:02.495Z,20.68
2019-02-21T03:44:33.489Z,20.57
2019-02-21T03:47:04.701Z,21.80
2019-02-21T03:49:35.668Z,21.42
2019-02-21T03:52:07.558Z,21.93
2019-02-21T03:54:38.768Z,21.95
2019-02-21T03:57:09.993Z,22.25
2019-02-21T03:59:41.595Z,21.95
2019-02-21T04:02:12.548Z,21.75
2019-02-21T04:04:44.400Z,20.70
2019-02-21T04:07:15.634Z,21.35
2019-02-21T04:09:47.515Z,21.52
2019-02-21T04:12:19.283Z,22.02
2019-02-21T04:14:49.914Z,22.55
2019-02-21T04:17:20.824Z,21.20
2019-02-21T04:19:52.130Z,21.15
2019-02-21T04:22:23.129Z,21.87
2019-02-21T04:24:54.410Z,22.32
2019-02-21T04:27:26.274Z,24.25
2019-02-21T04:29:57.522Z,22.25
2019-02-21T04:32:29.083Z,23.52
2019-02-21T04:35:00.659Z,22.75
2019-02-21T04:37:32.190Z,22.70
2019-02-21T04:40:03.610Z,26.50
2019-02-21T04:42:34.536Z,25.75
2019-02-21T04:45:06.140Z,27.27
2019-02-21T04:47:37.690Z,25.10
2019-02-21T04:50:09.017Z,25.88
2019-02-21T04:52:40.383Z,26.17
2019-02-21T04:55:11.008Z,26.97
2019-02-21T04:57:42.535Z,25.77
2019-02-21T05:00:14.985Z,27.05
2019-02-21T05:02:46.499Z,28.40
2019-02-21T05:05:17.754Z,27.50
2019-02-21T05:07:48.968Z,28.50
2019-02-21T05:10:20.509Z,28.27
2019-02-21T05:12:52.347Z,27.52
2019-02-21T05:15:23.872Z,29.40
2019-02-21T05:17:55.674Z,28.30
2019-02-21T05:20:26.967Z,29.72
2019-02-21T05:22:57.976Z,29.72
2019-02-21T05:25:28.952Z,29.20
2019-02-21T05:28:18.041Z,27.67
2019-02-21T05:30:51.434Z,27.50
2019-02-21T05:33:40.758Z,28.65
2019-02-21T05:36:46.025Z,28.30
2019-02-21T05:39:33.452Z,26.35
2019-02-21T05:42:13.525Z,27.70
2019-02-21T05:45:11.435Z,28.50
2019-02-21T05:48:01.864Z,29.32
2019-02-21T05:50:42.242Z,29.02
2019-02-21T05:53:22.500Z,30.82
2019-02-21T05:56:01.679Z,31.50
2019-02-21T05:59:04.675Z,31.62
2019-02-21T06:02:04.723Z,32.10
2019-02-21T06:04:53.315Z,33.48
2019-02-21T06:07:43.668Z,31.37
2019-02-21T06:10:24.151Z,32.28
2019-02-21T06:13:20.358Z,35.60
2019-02-21T06:16:13.494Z,37.65
2019-02-21T06:18:52.694Z,35.98
2019-02-21T06:21:33.120Z,38.02
2019-02-21T06:24:23.574Z,38.45
2019-02-21T06:27:02.822Z,36.60
2019-02-21T06:29:48.585Z,41.23
2019-02-21T06:32:20.354Z,42.17
2019-02-21T06:34:52.400Z,44.93
2019-02-21T06:37:24.274Z,45.43
2019-02-21T06:39:55.337Z,48.42
2019-02-21T06:42:26.627Z,49.13
2019-02-21T06:44:57.891Z,43.98
2019-02-21T06:47:29.810Z,40.38
2019-02-21T06:50:01.121Z,40.20
2019-02-21T06:52:32.680Z,38.38
2019-02-21T06:55:06.245Z,41.55
2019-02-21T06:57:37.501Z,42.80
2019-02-21T07:00:09.227Z,40.45
2019-02-21T07:02:40.172Z,41.35
2019-02-21T07:05:12.041Z,37.93
2019-02-21T07:07:43.805Z,39.00
2019-02-21T07:10:15.367Z,38.55
2019-02-21T07:12:46.461Z,39.27
2019-02-21T07:15:17.438Z,39.95
2019-02-21T07:17:49.778Z,39.30
2019-02-21T07:20:20.930Z,39.90
2019-02-21T07:22:52.591Z,39.35
2019-02-21T07:25:32.287Z,38.98
2019-02-21T07:28:11.375Z,39.67
2019-02-21T07:30:36.037Z,40.25
2019-02-21T07:33:07.319Z,40.12
2019-02-21T07:35:38.887Z,41.18
2019-02-21T07:38:09.888Z,41.00
2019-02-21T07:40:40.881Z,39.95
2019-02-21T07:43:13.020Z,39.55
2019-02-21T07:45:44.645Z,38.73
2019-02-21T07:48:15.682Z,40.08
2019-02-21T07:50:47.042Z,41.08
2019-02-21T07:53:18.614Z,38.33
2019-02-21T07:55:50.486Z,39.58
2019-02-21T07:58:21.405Z,38.13
2019-02-21T08:00:54.081Z,37.10
2019-02-21T08:03:30.285Z,37.90
2019-02-21T08:05:59.214Z,39.67
2019-02-21T08:08:32.475Z,36.83
2019-02-21T08:11:03.865Z,38.73
2019-02-21T08:13:35.461Z,37.48
2019-02-21T08:16:06.765Z,36.45
2019-02-21T08:18:38.015Z,35.40
2019-02-21T08:21:09.535Z,36.60
2019-02-21T08:23:50.039Z,36.23
2019-02-21T08:26:14.773Z,34.75
2019-02-21T08:28:46.354Z,35.23
2019-02-21T08:31:18.031Z,34.43
2019-02-21T08:33:58.638Z,34.55
2019-02-21T08:36:29.154Z,31.48
2019-02-21T08:39:00.429Z,29.55
2019-02-21T08:41:32.267Z,29.63
2019-02-21T08:44:03.852Z,30.55
2019-02-21T08:46:35.617Z,31.80
2019-02-21T08:49:07.496Z,30.12
2019-02-21T08:51:39.086Z,31.50
2019-02-21T08:54:11.566Z,31.40
2019-02-21T08:56:42.899Z,30.90
2019-02-21T08:59:14.762Z,29.67
2019-02-21T09:01:46.057Z,31.65
2019-02-21T09:04:26.873Z,29.45
2019-02-21T09:06:50.258Z,29.65
2019-02-21T09:09:21.528Z,30.55
2019-02-21T09:11:53.931Z,30.20
2019-02-21T09:14:25.367Z,30.15
2019-02-21T09:16:57.006Z,30.75
2019-02-21T09:19:30.539Z,30.02
2019-02-21T09:22:01.051Z,30.37
2019-02-21T09:24:38.740Z,30.25
2019-02-21T09:27:05.151Z,30.80
2019-02-21T09:29:36.816Z,31.70
2019-02-21T09:32:08.566Z,32.53
2019-02-21T09:34:40.146Z,34.35
2019-02-21T09:37:11.714Z,33.98
2019-02-21T09:39:43.277Z,33.30
2019-02-21T09:42:14.910Z,33.13
2019-02-21T09:44:46.585Z,33.50
2019-02-21T09:47:18.230Z,32.40
2019-02-21T09:49:50.103Z,31.75
2019-02-21T09:52:22.018Z,30.95
2019-02-21T09:54:53.036Z,31.53
2019-02-21T09:57:24.278Z,30.60
2019-02-21T09:59:55.273Z,29.70
2019-02-21T10:02:26.593Z,29.90
2019-02-21T10:05:05.198Z,29.80
2019-02-21T10:07:31.510Z,30.53
2019-02-21T10:10:02.537Z,29.90
2019-02-21T10:12:34.134Z,30.10
2019-02-21T10:15:05.674Z,31.30
2019-02-21T10:17:36.386Z,30.53
2019-02-21T10:20:10.952Z,30.57
2019-02-21T10:22:42.875Z,30.93
2019-02-21T10:25:18.382Z,31.37
2019-02-21T10:27:50.003Z,31.73
2019-02-21T10:30:22.316Z,31.20
2019-02-21T10:32:53.592Z,31.27
2019-02-21T10:35:25.987Z,31.73
2019-02-21T10:37:56.723Z,30.17
2019-02-21T10:40:28.403Z,30.30
2019-02-21T10:42:59.796Z,29.73
2019-02-21T10:45:31.388Z,29.30
2019-02-21T10:48:02.134Z,27.23
2019-02-21T10:50:33.759Z,26.80
2019-02-21T10:53:05.660Z,28.20
2019-02-21T10:55:37.241Z,28.20
2019-02-21T10:58:08.506Z,28.80
2019-02-21T11:00:40.120Z,26.43
2019-02-21T11:03:11.422Z,27.47
2019-02-21T11:05:43.297Z,27.00
2019-02-21T11:08:14.921Z,26.70
2019-02-21T11:10:46.687Z,25.93
2019-02-21T11:13:17.689Z,24.23
2019-02-21T11:15:49.294Z,24.60
2019-02-21T11:18:20.288Z,22.80
2019-02-21T11:20:51.889Z,21.67
2019-02-21T11:23:23.495Z,23.90
2019-02-21T11:25:54.620Z,23.33
2019-02-21T11:28:27.122Z,23.70
2019-02-21T11:30:58.476Z,24.90
2019-02-21T11:33:29.694Z,24.50
2019-02-21T11:36:00.985Z,22.90
2019-02-21T11:38:32.343Z,23.70
2019-02-21T11:41:04.669Z,26.83
2019-02-21T11:43:36.284Z,25.23
2019-02-21T11:46:08.366Z,25.43
2019-02-21T11:48:39.349Z,25.03
2019-02-21T11:51:10.690Z,25.77
2019-02-21T11:53:41.798Z,25.17
2019-02-21T11:56:15.667Z,27.20
2019-02-21T11:58:46.508Z,23.90
2019-02-21T12:01:17.524Z,24.00
2019-02-21T12:03:48.265Z,24.20
2019-02-21T12:06:19.293Z,23.73
2019-02-21T12:08:50.936Z,22.67
2019-02-21T12:11:22.567Z,22.30
2019-02-21T12:13:54.524Z,23.77
2019-02-21T12:16:26.417Z,24.33
2019-02-21T12:18:58.329Z,23.90
2019-02-21T12:21:29.292Z,22.97
2019-02-21T12:24:01.052Z,22.20
2019-02-21T12:26:32.003Z,22.20
2019-02-21T12:29:02.956Z,22.67
2019-02-21T12:31:34.614Z,22.63
2019-02-21T12:34:06.067Z,23.23
2019-02-21T12:36:37.378Z,22.03
2019-02-21T12:39:09.510Z,22.60
2019-02-21T12:41:41.287Z,32.87
2019-02-21T12:44:12.741Z,23.70
2019-02-21T12:46:45.663Z,23.33
2019-02-21T12:49:17.217Z,23.10
2019-02-21T12:51:48.247Z,24.20
2019-02-21T12:54:19.501Z,45.03
2019-02-21T12:56:50.883Z,23.23
2019-02-21T12:59:21.605Z,21.97
2019-02-21T13:01:53.368Z,22.70
2019-02-21T13:04:24.662Z,22.20
2019-02-21T13:06:56.602Z,21.80
2019-02-21T13:09:27.882Z,22.07
2019-02-21T13:11:59.191Z,22.33
2019-02-21T13:14:31.224Z,20.87
2019-02-21T13:17:03.142Z,21.87
2019-02-21T13:19:35.202Z,20.70
2019-02-21T13:22:06.882Z,20.23
2019-02-21T13:24:37.848Z,21.30
2019-02-21T13:27:13.555Z,20.80
2019-02-21T13:29:44.800Z,22.00
2019-02-21T13:32:16.434Z,21.00
2019-02-21T13:34:47.794Z,21.33
2019-02-21T13:37:28.212Z,21.30
2019-02-21T13:39:52.983Z,21.50
2019-02-21T13:42:24.610Z,22.17
2019-02-21T13:44:56.195Z,20.17
2019-02-21T13:47:27.687Z,19.70
2019-02-21T13:49:59.294Z,19.80
2019-02-21T13:52:31.054Z,20.17
2019-02-21T13:55:02.394Z,21.00
2019-02-21T13:57:33.383Z,20.53
2019-02-21T14:00:05.180Z,20.43
2019-02-21T14:02:36.713Z,19.70
2019-02-21T14:05:09.201Z,19.03
2019-02-21T14:07:40.197Z,19.10
2019-02-21T14:10:11.614Z,19.10
2019-02-21T14:12:43.413Z,18.63
2019-02-21T14:15:18.138Z,19.47
2019-02-21T14:17:49.855Z,19.60
2019-02-21T14:20:21.600Z,19.40
2019-02-21T14:22:53.340Z,19.77
2019-02-21T14:25:24.681Z,19.80
2019-02-21T14:27:55.955Z,20.43
2019-02-21T14:30:27.265Z,19.33
2019-02-21T14:32:58.913Z,19.20
2019-02-21T14:35:31.239Z,18.73
2019-02-21T14:38:02.643Z,20.67
2019-02-21T14:40:35.410Z,19.90
2019-02-21T14:43:07.026Z,18.93
2019-02-21T14:45:38.175Z,18.30
2019-02-21T14:48:09.466Z,17.70
2019-02-21T14:50:40.458Z,17.77
2019-02-21T14:53:12.057Z,18.10
2019-02-21T14:55:43.360Z,18.33
2019-02-21T14:58:14.697Z,17.77
2019-02-21T15:00:45.836Z,17.43
2019-02-21T15:03:21.878Z,17.40
2019-02-21T15:05:51.551Z,18.13
2019-02-21T15:08:23.078Z,18.60
2019-02-21T15:10:54.075Z,22.20
2019-02-21T15:13:25.722Z,19.57
2019-02-21T15:15:56.851Z,18.37
2019-02-21T15:18:28.203Z,17.27
2019-02-21T15:21:00.134Z,17.97
2019-02-21T15:23:31.561Z,18.03
2019-02-21T15:26:02.941Z,18.43
2019-02-21T15:28:34.539Z,18.87
2019-02-21T15:31:06.216Z,18.67
2019-02-21T15:33:37.583Z,18.00
2019-02-21T15:36:09.518Z,17.23
2019-02-21T15:38:41.115Z,16.80
2019-02-21T15:41:12.673Z,17.33
2019-02-21T15:43:44.530Z,17.20
2019-02-21T15:46:17.629Z,17.60
2019-02-21T15:48:49.290Z,29.90
2019-02-21T15:51:20.540Z,19.30
2019-02-21T15:53:52.267Z,23.03
2019-02-21T15:56:23.597Z,25.53
2019-02-21T15:58:54.782Z,22.27
2019-02-21T16:01:25.757Z,17.07
2019-02-21T16:03:56.541Z,16.80
2019-02-21T16:06:28.746Z,17.90
2019-02-21T16:09:00.112Z,18.57
2019-02-21T16:11:31.743Z,18.03
2019-02-21T16:14:03.852Z,17.90
2019-02-21T16:16:35.648Z,18.63
2019-02-21T16:19:07.476Z,18.47
2019-02-21T16:21:39.406Z,19.37
2019-02-21T16:24:10.971Z,19.70
2019-02-21T16:26:42.662Z,19.77
2019-02-21T16:29:14.227Z,20.50
2019-02-21T16:31:46.120Z,20.47
2019-02-21T16:34:18.060Z,20.07
2019-02-21T16:36:49.685Z,19.80
2019-02-21T16:39:23.571Z,19.60
2019-02-21T16:41:54.045Z,21.27
2019-02-21T16:44:25.814Z,19.33
2019-02-21T16:46:57.338Z,22.57
2019-02-21T16:49:28.686Z,20.33
2019-02-21T16:51:59.680Z,20.87
2019-02-21T16:54:31.592Z,20.70
2019-02-21T16:57:02.923Z,20.23
2019-02-21T16:59:34.593Z,22.30
2019-02-21T17:02:06.230Z,23.17
2019-02-21T17:04:40.981Z,26.23
2019-02-21T17:07:16.210Z,25.13
2019-02-21T17:09:46.518Z,22.40
2019-02-21T17:12:18.145Z,22.60
2019-02-21T17:14:49.729Z,21.53
2019-02-21T17:17:21.289Z,22.43
2019-02-21T17:19:53.214Z,25.30
2019-02-21T17:22:24.379Z,22.37
2019-02-21T17:24:56.033Z,22.00
2019-02-21T17:27:27.298Z,31.33
2019-02-21T17:29:59.322Z,24.57
2019-02-21T17:32:30.761Z,22.03
2019-02-21T17:35:02.652Z,21.27
2019-02-21T17:37:33.983Z,20.10
2019-02-21T17:40:05.189Z,20.70
2019-02-21T17:42:36.281Z,19.30
2019-02-21T17:45:08.175Z,19.60
2019-02-21T17:47:40.304Z,32.33
2019-02-21T17:50:12.552Z,27.80
2019-02-21T17:52:44.356Z,23.40
2019-02-21T17:55:16.015Z,27.70
2019-02-21T17:57:47.988Z,20.50
2019-02-21T18:00:26.893Z,18.47
2019-02-21T18:02:58.346Z,18.20
2019-02-21T18:05:30.029Z,18.70
2019-02-21T18:08:01.675Z,17.13
2019-02-21T18:10:33.397Z,19.00
2019-02-21T18:13:05.155Z,20.53
2019-02-21T18:15:36.566Z,19.20
2019-02-21T18:18:08.309Z,20.40
2019-02-21T18:20:39.336Z,20.27
2019-02-21T18:23:12.486Z,18.60
2019-02-21T18:25:49.668Z,18.90
2019-02-21T18:28:21.108Z,17.77
2019-02-21T18:30:52.041Z,19.27
2019-02-21T18:33:23.792Z,21.47
2019-02-21T18:35:55.148Z,30.10
2019-02-21T18:38:27.815Z,26.20
2019-02-21T18:41:00.198Z,21.17
2019-02-21T18:43:32.480Z,20.77
2019-02-21T18:46:04.314Z,19.23
2019-02-21T18:48:37.255Z,18.00
2019-02-21T18:51:09.977Z,20.43
2019-02-21T18:53:43.146Z,19.20
2019-02-21T18:56:15.113Z,19.60
2019-02-21T18:58:47.357Z,19.77
2019-02-21T19:01:19.394Z,19.77
2019-02-21T19:03:51.237Z,22.00
2019-02-21T19:06:23.298Z,20.73
2019-02-21T19:08:54.764Z,26.90
2019-02-21T19:11:26.141Z,27.90
2019-02-21T19:13:58.837Z,30.90
2019-02-21T19:16:31.314Z,30.03
2019-02-21T19:19:03.204Z,28.10
2019-02-21T19:21:35.126Z,26.53
2019-02-21T19:24:06.568Z,21.67
2019-02-21T19:26:38.289Z,21.00
2019-02-21T19:29:09.660Z,19.90
2019-02-21T19:31:40.733Z,18.63
2019-02-21T19:34:12.486Z,20.03
2019-02-21T19:36:44.406Z,20.23
2019-02-21T19:39:16.685Z,20.40
2019-02-21T19:41:49.473Z,23.80
2019-02-21T19:44:20.565Z,22.00
2019-02-21T19:46:52.467Z,21.77
2019-02-21T19:49:23.727Z,21.63
2019-02-21T19:51:55.198Z,19.77
2019-02-21T19:54:26.846Z,21.50
2019-02-21T19:56:59.020Z,20.20
2019-02-21T19:59:31.048Z,18.87
2019-02-21T20:02:02.353Z,20.40
2019-02-21T20:04:34.701Z,21.87
2019-02-21T20:07:06.831Z,23.33
2019-02-21T20:09:39.112Z,24.47
2019-02-21T20:12:10.727Z,24.83
2019-02-21T20:14:42.689Z,25.00
2019-02-21T20:17:15.177Z,24.40
2019-02-21T20:19:47.245Z,23.57
2019-02-21T20:22:19.371Z,23.67
2019-02-21T20:24:51.614Z,21.40
2019-02-21T20:27:23.415Z,22.20
2019-02-21T20:29:55.621Z,21.87
2019-02-21T20:32:26.889Z,21.27
2019-02-21T20:34:59.205Z,21.27
2019-02-21T20:37:30.634Z,26.47
2019-02-21T20:40:02.781Z,21.00
2019-02-21T20:42:34.673Z,19.23
2019-02-21T20:45:07.998Z,22.13
2019-02-21T20:47:39.916Z,20.10
2019-02-21T20:50:12.050Z,20.43
2019-02-21T20:52:43.817Z,24.03
2019-02-21T20:55:15.307Z,22.77
2019-02-21T20:57:47.287Z,21.57
2019-02-21T21:00:20.232Z,22.67
2019-02-21T21:02:51.901Z,22.97
2019-02-21T21:05:24.019Z,21.70
2019-02-21T21:07:55.903Z,24.07
2019-02-21T21:10:27.323Z,21.97
2019-02-21T21:12:59.138Z,22.20
2019-02-21T21:15:31.303Z,23.77
2019-02-21T21:18:03.150Z,24.80
2019-02-21T21:20:35.191Z,23.40
2019-02-21T21:23:06.958Z,24.70
2019-02-21T21:25:37.942Z,26.27
2019-02-21T21:28:10.251Z,24.63
2019-02-21T21:30:42.339Z,26.07
2019-02-21T21:33:14.588Z,26.27
2019-02-21T21:35:46.066Z,24.53
2019-02-21T21:38:24.133Z,25.60
2019-02-21T21:40:51.517Z,23.90
2019-02-21T21:43:23.370Z,24.83
2019-02-21T21:45:55.147Z,23.47
2019-02-21T21:48:26.792Z,23.93
2019-02-21T21:50:58.952Z,23.93
2019-02-21T21:53:30.763Z,26.20
2019-02-21T21:56:02.128Z,25.07
2019-02-21T21:58:34.524Z,23.90
2019-02-21T22:01:06.082Z,24.70
2019-02-21T22:03:37.753Z,24.30
2019-02-21T22:06:09.742Z,23.97
2019-02-21T22:08:41.822Z,24.53
2019-02-21T22:11:13.154Z,24.20
2019-02-21T22:13:45.474Z,24.40
2019-02-21T22:16:17.353Z,26.37
2019-02-21T22:18:49.020Z,28.43
2019-02-21T22:21:20.758Z,24.93
2019-02-21T22:23:52.801Z,27.07
2019-02-21T22:26:24.228Z,26.17
2019-02-21T22:28:55.978Z,26.33
2019-02-21T22:31:27.758Z,25.97
2019-02-21T22:33:59.823Z,25.70
2019-02-21T22:36:31.380Z,26.10
2019-02-21T22:39:03.172Z,26.83
2019-02-21T22:41:34.104Z,26.77
2019-02-21T22:44:05.182Z,24.67
2019-02-21T22:46:36.451Z,27.40
2019-02-21T22:49:07.755Z,29.07
2019-02-21T22:51:39.001Z,28.90
2019-02-21T22:54:09.775Z,27.60
2019-02-21T22:56:40.781Z,25.90
2019-02-21T22:59:12.451Z,29.10
2019-02-21T23:01:48.497Z,31.33
2019-02-21T23:05:07.367Z,29.33
2019-02-21T23:08:27.770Z,29.73
2019-02-21T23:10:59.044Z,30.00
2019-02-21T23:13:30.616Z,32.10
2019-02-21T23:16:02.201Z,31.10
2019-02-21T23:18:33.518Z,31.40
2019-02-21T23:21:05.208Z,31.03
2019-02-21T23:23:36.447Z,31.97
2019-02-21T23:26:07.976Z,32.33
2019-02-21T23:28:39.528Z,31.33
2019-02-21T23:31:10.508Z,31.10
2019-02-21T23:33:48.702Z,31.00
2019-02-21T23:36:20.286Z,29.50
2019-02-21T23:38:51.848Z,36.93
2019-02-21T23:41:23.676Z,31.40
2019-02-21T23:43:54.956Z,31.70
2019-02-21T23:46:26.852Z,32.73
2019-02-21T23:48:58.081Z,31.37
2019-02-21T23:51:29.369Z,31.50
2019-02-21T23:54:03.137Z,32.10
2019-02-21T23:56:33.576Z,32.00
2019-02-21T23:59:04.528Z,30.47
